x

Cape Suckling - 35 Nm Se Of Kayak Is, Ak (46082) Wave Buoy

6:50pm - Wed 2nd Sep 2015 All times are AKDT. -8 hours from GMT.

  • Sig Wave height 2.3ft
  • Swell Direction
  • Peak Period 14s
  • Average Period 7s
  • Wind
    4mph, 7mph gusts
  • Sea Temp 58°f
  • Air Temp 57°f
  • Sea Pressure 1015.8mb
  • Cape Suckling - 35 Nm Se Of Kayak Is, Ak
  • Cape Suckling - 35 Nm Se Of Kayak Is, Ak

More Historic Weather Station data

Upgrade to MSW Pro to gain access to the past 30 days of data for over 8000 Wavebouys and Weather Stations around the globe.

Join Pro

Comparision Forecast

View Surf forecast
   
Wed 09/02 6:50pm 2.5ft 14s 7s 4 7 mph 1015.8mb 58f 57f
5:50pm 2.5ft 14s 6s 4 7 mph 1015.5mb 59f 57f
4:50pm 2.5ft 15s 6s 4
mph
1015.6mb 59f 57f
3:50pm 2.5ft 15s 6s 2 4 mph 1015.4mb 59f 58f
2:50pm 2.5ft 14s 6s 2 4 mph 1015.4mb 58f 56f
1:50pm 2.5ft 14s 6s 4
mph
1015.3mb 58f 55f
12:50pm 2.5ft 14s 7s 4
mph
1015.1mb 58f 55f
11:50am 2.5ft 13s 6s 7
mph
1014.9mb 58f 54f
10:50am 2.5ft 15s 6s 7
mph
1014.7mb 57f 54f
9:50am 2.5ft 7s 7s 7
mph
1014.5mb 57f 54f
8:50am 2.5ft 14s 6s 9
mph
1014.3mb 57f 55f
7:50am 2.5ft 15s 7s 7
mph
1013.8mb 57f 55f
6:50am 2.5ft 14s 7s 4 7 mph 1013.4mb 57f 54f
5:50am 2.5ft 15s 7s 7
mph
1013.3mb 57f 54f
4:50am 3ft 8s 7s 7
mph
1013mb 57f 55f
3:50am 3ft 8s 7s 7 9 mph 1012.8mb 57f 55f
2:50am 3.5ft 8s 7s  -  2 mph 1012.6mb 57f 55f
1:50am 3.5ft 8s 7s 2 4 mph 1012.5mb 57f 56f
12:50am 3.5ft 8s 7s 4 7 mph 1012.2mb 57f 56f
Tue 09/01 11:50pm 3.5ft 8s 7s 4 7 mph 1012.1mb 57f 56f
10:50pm 3.5ft 8s 6s 2
mph
1011.6mb 57f 57f
9:50pm 3.5ft 8s 6s  -  2 mph 1011.2mb 57f 57f
8:50pm 3.5ft 8s 6s  -  2 mph 1010.8mb 58f 56f
7:50pm 3.5ft 8s 6s 4 7 mph 1010.3mb 58f 57f
6:50pm 3.5ft 9s 6s 4 7 mph 1009.8mb 58f 58f
5:50pm 3.5ft 8s 6s 2
mph
1009.5mb 58f 58f
4:50pm 3.5ft 8s 6s 7 9 mph 1009.2mb 58f 58f
3:50pm 4ft 9s 6s 7 9 mph 1008.7mb 58f 57f
2:50pm 3.5ft 10s 6s 4 7 mph 1008.3mb 58f 57f
1:50pm 4ft 6s 6s 4 7 mph 1007.9mb 58f 56f
12:50pm 4.5ft 8s 6s 7 9 mph 1007.5mb 57f 56f
11:50am 4.5ft 7s 6s 9 13 mph 1007.2mb 57f 56f
10:50am 4.5ft 7s 6s 13 16 mph 1006.8mb 57f 56f
9:50am 5ft 7s 6s 13 16 mph 1006.5mb 57f 55f
8:50am 5.5ft 7s 6s 16 18 mph 1006.1mb 57f 55f
7:50am 5.5ft 8s 6s 18 20 mph 1005.6mb 57f 55f
6:50am 6ft 8s 6s 18 20 mph 1005.2mb 57f 55f
5:50am 6ft 9s 6s 16 18 mph 1005mb 57f 55f
4:50am 5.5ft 8s 6s 16 18 mph 1004.7mb 57f 56f
3:50am 5.5ft 7s 6s 16 20 mph 1004.1mb 57f 57f
2:50am 5.5ft 8s 6s 16 20 mph 1003.5mb 57f 57f
1:50am 5ft 9s 7s 16 18 mph 1002.9mb 57f 58f
12:50am 5ft 10s 7s 16 20 mph 1002.3mb 57f 59f
Mon 08/31 11:50pm 6ft 10s 7s 9 11 mph 1001.9mb 57f 57f
10:50pm 5ft 10s 7s 11 13 mph 1001.2mb 57f 57f
9:50pm 5ft 10s 7s 13 16 mph 1000.3mb 57f 57f
8:50pm 5.5ft 9s 7s 16 18 mph 999.6mb 57f 57f
7:50pm 5ft 10s 8s 13 16 mph 999.1mb 57f 56f
6:50pm 6ft 9s 8s 13 16 mph 998.3mb 57f 56f
5:50pm 5.5ft 10s 8s 11 13 mph 997.7mb 57f 55f
4:50pm 6ft 8s 8s 9 11 mph 997.1mb 57f 55f
3:50pm 6ft 9s 7s 9 11 mph 996.5mb 57f 54f
2:50pm 6ft 9s 6s 11 13 mph 995.5mb 57f 54f
1:50pm 6ft 9s 6s 20 25 mph 994.4mb 57f 54f
12:50pm 5.5ft 9s 6s 20 25 mph 993.4mb 57f 54f
11:50am 5.5ft 9s 6s 20 27 mph 992.6mb 57f 53f
10:50am 6ft 9s 7s 16 18 mph 992mb 57f 53f
9:50am 6ft 10s 7s 13 16 mph 991.5mb 57f 51f
8:50am 6ft 10s 7s 16 18 mph 991mb 57f 51f
7:50am 6.5ft 10s 8s 20 29 mph 990.1mb 57f 53f
6:50am 6.5ft 11s 8s 13 20 mph 989.4mb 57f 55f
5:50am 6ft 10s 8s 2 4 mph 989.2mb 57f 55f
4:50am 6.5ft 10s 8s 2 4 mph 988.8mb 57f 54f
3:50am 5.5ft 10s 8s 4 7 mph 988.6mb 57f 55f
2:50am 5.5ft 10s 7s 4 7 mph 988.2mb 57f 55f
1:50am 5.5ft 10s 7s 9 11 mph 988mb 57f 55f
12:50am 6ft 10s 7s 11 13 mph 987.5mb 57f 55f
Sun 08/30 11:50pm 6ft 8s 7s 13 16 mph 987.2mb 57f 55f
10:50pm 6ft 8s 7s 13 16 mph 986.9mb 57f 55f
9:50pm 6.5ft 8s 7s 11 13 mph 986.6mb 57f 55f
8:50pm 5ft 10s 6s 13 16 mph 986.2mb 58f 53f
7:50pm 5ft 8s 6s 11 13 mph 985.8mb 58f 52f
6:50pm 4.5ft 8s 6s 13 16 mph 985.6mb 58f 51f
5:50pm 4.5ft 6s 6s 9 13 mph 985.2mb 58f 49f
4:50pm 4ft 7s 6s 9 13 mph 984.6mb 58f 52f
3:50pm 3.5ft 7s 5s 4 7 mph 984.3mb 58f 51f
2:50pm 3.5ft 7s 5s 4 7 mph 983.8mb 58f 51f
1:50pm 3.5ft 5s 5s 9 11 mph 983.3mb 58f 50f
12:50pm 3.5ft 6s 5s 9 13 mph 983mb 58f 51f
11:50am 3.5ft 6s 5s 7 9 mph 982.7mb 58f 51f
10:50am 3.5ft 7s 5s 7 9 mph 982.6mb 57f 51f
9:50am 3.5ft 8s 6s 7 9 mph 982.6mb 57f 50f
8:50am 3.5ft 7s 5s 9 11 mph 982.6mb 57f 51f
7:50am 3.5ft 7s 5s 7 9 mph 982.4mb 57f 51f
6:50am 3.5ft 6s 5s 7 11 mph 982.5mb 58f 50f
5:50am 3.5ft 7s 5s 9 11 mph 982.6mb 58f 50f
4:50am 4ft 6s 5s 11
mph
982.8mb 57f 50f